sensor_id;sensor_type;location;lat;lon;timestamp;P1;durP1;ratioP1;P2;durP2;ratioP2
21876;SDS011;11103;43.788;23.710;2023-03-21T00:00:17;44.43;;;25.03;;
21876;SDS011;11103;43.788;23.710;2023-03-21T00:02:42;42.40;;;26.37;;
21876;SDS011;11103;43.788;23.710;2023-03-21T00:05:08;43.87;;;26.17;;
21876;SDS011;11103;43.788;23.710;2023-03-21T00:07:33;48.80;;;27.93;;
21876;SDS011;11103;43.788;23.710;2023-03-21T00:09:59;46.13;;;26.13;;
21876;SDS011;11103;43.788;23.710;2023-03-21T00:12:24;44.23;;;26.07;;
21876;SDS011;11103;43.788;23.710;2023-03-21T00:14:50;53.37;;;29.77;;
21876;SDS011;11103;43.788;23.710;2023-03-21T00:17:18;69.57;;;35.90;;
21876;SDS011;11103;43.788;23.710;2023-03-21T00:19:46;67.10;;;34.23;;
21876;SDS011;11103;43.788;23.710;2023-03-21T00:22:12;70.83;;;36.00;;
21876;SDS011;11103;43.788;23.710;2023-03-21T00:24:38;67.50;;;34.20;;
21876;SDS011;11103;43.788;23.710;2023-03-21T00:27:04;57.90;;;32.03;;
21876;SDS011;11103;43.788;23.710;2023-03-21T00:29:31;51.63;;;28.83;;
21876;SDS011;11103;43.788;23.710;2023-03-21T00:31:56;47.80;;;26.63;;
21876;SDS011;11103;43.788;23.710;2023-03-21T00:34:22;47.03;;;26.87;;
21876;SDS011;11103;43.788;23.710;2023-03-21T00:36:47;44.13;;;26.60;;
21876;SDS011;11103;43.788;23.710;2023-03-21T00:39:12;41.37;;;25.13;;
21876;SDS011;11103;43.788;23.710;2023-03-21T00:41:38;44.13;;;24.77;;
21876;SDS011;11103;43.788;23.710;2023-03-21T00:44:04;37.40;;;23.00;;
21876;SDS011;11103;43.788;23.710;2023-03-21T00:46:29;39.67;;;24.20;;
21876;SDS011;11103;43.788;23.710;2023-03-21T00:48:54;36.37;;;25.17;;
21876;SDS011;11103;43.788;23.710;2023-03-21T00:51:21;37.83;;;24.90;;
21876;SDS011;11103;43.788;23.710;2023-03-21T00:53:57;42.27;;;25.53;;
21876;SDS011;11103;43.788;23.710;2023-03-21T00:56:23;44.00;;;24.73;;
21876;SDS011;11103;43.788;23.710;2023-03-21T00:58:48;37.93;;;24.03;;
21876;SDS011;11103;43.788;23.710;2023-03-21T01:01:15;37.37;;;23.30;;
21876;SDS011;11103;43.788;23.710;2023-03-21T01:03:40;35.63;;;23.87;;
21876;SDS011;11103;43.788;23.710;2023-03-21T01:06:15;42.73;;;27.30;;
21876;SDS011;11103;43.788;23.710;2023-03-21T01:08:43;52.50;;;31.77;;
21876;SDS011;11103;43.788;23.710;2023-03-21T01:11:11;71.77;;;38.30;;
21876;SDS011;11103;43.788;23.710;2023-03-21T01:13:39;81.27;;;42.93;;
21876;SDS011;11103;43.788;23.710;2023-03-21T01:16:05;92.43;;;51.20;;
21876;SDS011;11103;43.788;23.710;2023-03-21T01:18:32;99.70;;;54.47;;
21876;SDS011;11103;43.788;23.710;2023-03-21T01:20:59;95.33;;;51.80;;
21876;SDS011;11103;43.788;23.710;2023-03-21T01:23:26;96.57;;;53.43;;
21876;SDS011;11103;43.788;23.710;2023-03-21T01:25:53;108.83;;;59.73;;
21876;SDS011;11103;43.788;23.710;2023-03-21T01:28:20;105.83;;;59.10;;
21876;SDS011;11103;43.788;23.710;2023-03-21T01:30:50;105.80;;;57.60;;
21876;SDS011;11103;43.788;23.710;2023-03-21T01:33:16;110.00;;;56.60;;
21876;SDS011;11103;43.788;23.710;2023-03-21T01:35:43;101.17;;;54.03;;
21876;SDS011;11103;43.788;23.710;2023-03-21T01:38:10;69.33;;;40.83;;
21876;SDS011;11103;43.788;23.710;2023-03-21T01:40:36;67.67;;;36.53;;
21876;SDS011;11103;43.788;23.710;2023-03-21T01:43:02;55.60;;;31.70;;
21876;SDS011;11103;43.788;23.710;2023-03-21T01:48:30;49.80;;;30.77;;
21876;SDS011;11103;43.788;23.710;2023-03-21T01:50:57;47.97;;;27.80;;
21876;SDS011;11103;43.788;23.710;2023-03-21T01:53:25;42.67;;;28.33;;
21876;SDS011;11103;43.788;23.710;2023-03-21T01:56:30;48.37;;;30.93;;
21876;SDS011;11103;43.788;23.710;2023-03-21T01:58:58;51.23;;;30.23;;
21876;SDS011;11103;43.788;23.710;2023-03-21T02:01:29;43.37;;;28.47;;
21876;SDS011;11103;43.788;23.710;2023-03-21T02:03:56;48.10;;;29.50;;
21876;SDS011;11103;43.788;23.710;2023-03-21T02:06:27;44.03;;;29.33;;
21876;SDS011;11103;43.788;23.710;2023-03-21T02:08:57;49.70;;;29.53;;
21876;SDS011;11103;43.788;23.710;2023-03-21T02:11:28;54.40;;;30.57;;
21876;SDS011;11103;43.788;23.710;2023-03-21T02:13:56;50.53;;;32.70;;
21876;SDS011;11103;43.788;23.710;2023-03-21T02:16:40;46.67;;;33.10;;
21876;SDS011;11103;43.788;23.710;2023-03-21T02:27:39;49.20;;;31.43;;
21876;SDS011;11103;43.788;23.710;2023-03-21T02:38:55;60.77;;;38.03;;
21876;SDS011;11103;43.788;23.710;2023-03-21T02:47:02;57.23;;;36.87;;
21876;SDS011;11103;43.788;23.710;2023-03-21T02:52:11;62.03;;;38.67;;
21876;SDS011;11103;43.788;23.710;2023-03-21T02:54:42;61.43;;;37.87;;
21876;SDS011;11103;43.788;23.710;2023-03-21T02:57:08;67.43;;;37.87;;
21876;SDS011;11103;43.788;23.710;2023-03-21T02:59:34;62.50;;;38.27;;
21876;SDS011;11103;43.788;23.710;2023-03-21T03:02:01;62.73;;;37.10;;
21876;SDS011;11103;43.788;23.710;2023-03-21T03:04:27;67.73;;;38.77;;
21876;SDS011;11103;43.788;23.710;2023-03-21T03:12:26;67.90;;;40.20;;
21876;SDS011;11103;43.788;23.710;2023-03-21T03:18:23;55.33;;;36.00;;
21876;SDS011;11103;43.788;23.710;2023-03-21T03:24:09;50.40;;;33.00;;
21876;SDS011;11103;43.788;23.710;2023-03-21T03:26:47;52.73;;;36.63;;
21876;SDS011;11103;43.788;23.710;2023-03-21T03:29:20;52.40;;;33.40;;
21876;SDS011;11103;43.788;23.710;2023-03-21T03:31:50;61.90;;;35.17;;
21876;SDS011;11103;43.788;23.710;2023-03-21T03:34:21;100.97;;;48.33;;
21876;SDS011;11103;43.788;23.710;2023-03-21T03:36:52;91.90;;;48.13;;
21876;SDS011;11103;43.788;23.710;2023-03-21T03:39:21;65.77;;;38.33;;
21876;SDS011;11103;43.788;23.710;2023-03-21T03:41:54;52.00;;;31.97;;
21876;SDS011;11103;43.788;23.710;2023-03-21T03:44:24;50.17;;;31.37;;
21876;SDS011;11103;43.788;23.710;2023-03-21T03:49:19;65.40;;;32.97;;
21876;SDS011;11103;43.788;23.710;2023-03-21T03:54:23;51.30;;;30.63;;
21876;SDS011;11103;43.788;23.710;2023-03-21T03:56:54;43.53;;;29.27;;
21876;SDS011;11103;43.788;23.710;2023-03-21T03:59:21;45.07;;;30.20;;
21876;SDS011;11103;43.788;23.710;2023-03-21T04:01:46;46.80;;;30.63;;
21876;SDS011;11103;43.788;23.710;2023-03-21T04:04:12;46.23;;;31.07;;
21876;SDS011;11103;43.788;23.710;2023-03-21T04:06:40;49.73;;;31.67;;
21876;SDS011;11103;43.788;23.710;2023-03-21T04:09:06;53.50;;;30.93;;
21876;SDS011;11103;43.788;23.710;2023-03-21T04:11:32;53.80;;;32.20;;
21876;SDS011;11103;43.788;23.710;2023-03-21T04:13:58;53.57;;;33.03;;
21876;SDS011;11103;43.788;23.710;2023-03-21T04:16:23;48.57;;;32.83;;
21876;SDS011;11103;43.788;23.710;2023-03-21T04:18:49;48.90;;;30.93;;
21876;SDS011;11103;43.788;23.710;2023-03-21T04:21:16;52.70;;;33.73;;
21876;SDS011;11103;43.788;23.710;2023-03-21T04:23:42;52.60;;;31.83;;
21876;SDS011;11103;43.788;23.710;2023-03-21T04:26:07;47.03;;;28.10;;
21876;SDS011;11103;43.788;23.710;2023-03-21T04:28:33;45.60;;;28.87;;
21876;SDS011;11103;43.788;23.710;2023-03-21T04:31:00;60.57;;;30.70;;
21876;SDS011;11103;43.788;23.710;2023-03-21T04:33:26;57.43;;;33.43;;
21876;SDS011;11103;43.788;23.710;2023-03-21T04:35:52;52.00;;;30.77;;
21876;SDS011;11103;43.788;23.710;2023-03-21T04:38:21;50.13;;;30.27;;
21876;SDS011;11103;43.788;23.710;2023-03-21T04:40:47;63.20;;;36.50;;
21876;SDS011;11103;43.788;23.710;2023-03-21T04:43:13;63.63;;;35.37;;
21876;SDS011;11103;43.788;23.710;2023-03-21T04:45:38;66.77;;;35.57;;
21876;SDS011;11103;43.788;23.710;2023-03-21T04:48:04;63.97;;;35.10;;
21876;SDS011;11103;43.788;23.710;2023-03-21T04:50:30;64.47;;;33.80;;
21876;SDS011;11103;43.788;23.710;2023-03-21T04:52:56;66.83;;;34.30;;
21876;SDS011;11103;43.788;23.710;2023-03-21T04:55:21;65.33;;;31.97;;
21876;SDS011;11103;43.788;23.710;2023-03-21T04:57:49;108.60;;;44.17;;
21876;SDS011;11103;43.788;23.710;2023-03-21T05:00:14;105.97;;;49.20;;
21876;SDS011;11103;43.788;23.710;2023-03-21T05:02:40;96.57;;;46.53;;
21876;SDS011;11103;43.788;23.710;2023-03-21T05:05:06;103.63;;;47.07;;
21876;SDS011;11103;43.788;23.710;2023-03-21T05:07:35;103.20;;;50.23;;
21876;SDS011;11103;43.788;23.710;2023-03-21T05:10:05;129.37;;;57.17;;
21876;SDS011;11103;43.788;23.710;2023-03-21T05:12:32;102.67;;;48.97;;
21876;SDS011;11103;43.788;23.710;2023-03-21T05:14:58;102.83;;;48.90;;
21876;SDS011;11103;43.788;23.710;2023-03-21T05:17:23;89.93;;;47.37;;
21876;SDS011;11103;43.788;23.710;2023-03-21T05:19:49;85.07;;;43.90;;
21876;SDS011;11103;43.788;23.710;2023-03-21T05:22:17;71.10;;;39.93;;
21876;SDS011;11103;43.788;23.710;2023-03-21T05:24:43;52.10;;;32.63;;
21876;SDS011;11103;43.788;23.710;2023-03-21T05:27:14;66.57;;;35.30;;
21876;SDS011;11103;43.788;23.710;2023-03-21T05:30:09;60.17;;;34.43;;
21876;SDS011;11103;43.788;23.710;2023-03-21T05:32:36;51.23;;;29.97;;
21876;SDS011;11103;43.788;23.710;2023-03-21T05:35:02;49.77;;;30.93;;
21876;SDS011;11103;43.788;23.710;2023-03-21T05:37:28;53.53;;;29.07;;
21876;SDS011;11103;43.788;23.710;2023-03-21T05:39:54;51.20;;;28.07;;
21876;SDS011;11103;43.788;23.710;2023-03-21T05:42:19;48.93;;;27.70;;
21876;SDS011;11103;43.788;23.710;2023-03-21T05:44:45;46.30;;;27.00;;
21876;SDS011;11103;43.788;23.710;2023-03-21T05:47:14;42.90;;;26.60;;
21876;SDS011;11103;43.788;23.710;2023-03-21T05:49:40;50.00;;;26.60;;
21876;SDS011;11103;43.788;23.710;2023-03-21T05:52:06;41.33;;;26.47;;
21876;SDS011;11103;43.788;23.710;2023-03-21T05:54:32;42.40;;;25.50;;
21876;SDS011;11103;43.788;23.710;2023-03-21T05:56:57;43.43;;;24.43;;
21876;SDS011;11103;43.788;23.710;2023-03-21T05:59:22;43.90;;;25.20;;
21876;SDS011;11103;43.788;23.710;2023-03-21T06:01:48;41.30;;;25.50;;
21876;SDS011;11103;43.788;23.710;2023-03-21T06:04:13;46.40;;;25.07;;
21876;SDS011;11103;43.788;23.710;2023-03-21T06:06:39;44.20;;;24.83;;
21876;SDS011;11103;43.788;23.710;2023-03-21T06:09:04;38.57;;;24.13;;
21876;SDS011;11103;43.788;23.710;2023-03-21T06:11:31;42.43;;;25.90;;
21876;SDS011;11103;43.788;23.710;2023-03-21T06:13:58;47.63;;;26.43;;
21876;SDS011;11103;43.788;23.710;2023-03-21T06:16:24;40.83;;;24.53;;
21876;SDS011;11103;43.788;23.710;2023-03-21T06:18:49;53.37;;;28.30;;
21876;SDS011;11103;43.788;23.710;2023-03-21T06:21:15;49.93;;;27.80;;
21876;SDS011;11103;43.788;23.710;2023-03-21T06:23:40;46.93;;;26.20;;
21876;SDS011;11103;43.788;23.710;2023-03-21T06:26:06;49.20;;;29.13;;
21876;SDS011;11103;43.788;23.710;2023-03-21T06:28:31;45.93;;;26.33;;
21876;SDS011;11103;43.788;23.710;2023-03-21T06:30:57;40.20;;;26.87;;
21876;SDS011;11103;43.788;23.710;2023-03-21T06:33:23;48.10;;;28.73;;
21876;SDS011;11103;43.788;23.710;2023-03-21T06:35:52;50.00;;;28.50;;
21876;SDS011;11103;43.788;23.710;2023-03-21T06:38:19;44.43;;;29.10;;
21876;SDS011;11103;43.788;23.710;2023-03-21T06:40:48;40.63;;;27.40;;
21876;SDS011;11103;43.788;23.710;2023-03-21T06:43:13;41.77;;;27.30;;
21876;SDS011;11103;43.788;23.710;2023-03-21T06:45:40;55.43;;;29.07;;
21876;SDS011;11103;43.788;23.710;2023-03-21T06:48:06;54.40;;;30.07;;
21876;SDS011;11103;43.788;23.710;2023-03-21T06:50:31;50.23;;;29.90;;
21876;SDS011;11103;43.788;23.710;2023-03-21T06:52:56;47.67;;;27.80;;
21876;SDS011;11103;43.788;23.710;2023-03-21T06:55:23;48.40;;;28.27;;
21876;SDS011;11103;43.788;23.710;2023-03-21T06:57:54;41.63;;;27.67;;
21876;SDS011;11103;43.788;23.710;2023-03-21T07:00:20;50.07;;;29.97;;
21876;SDS011;11103;43.788;23.710;2023-03-21T07:02:46;49.13;;;29.57;;
21876;SDS011;11103;43.788;23.710;2023-03-21T07:05:12;44.30;;;28.40;;
21876;SDS011;11103;43.788;23.710;2023-03-21T07:07:39;42.83;;;26.70;;
21876;SDS011;11103;43.788;23.710;2023-03-21T07:10:04;39.97;;;26.50;;
21876;SDS011;11103;43.788;23.710;2023-03-21T07:12:30;35.20;;;24.57;;
21876;SDS011;11103;43.788;23.710;2023-03-21T07:15:00;35.10;;;24.40;;
21876;SDS011;11103;43.788;23.710;2023-03-21T07:17:26;40.03;;;23.67;;
21876;SDS011;11103;43.788;23.710;2023-03-21T07:19:52;39.33;;;24.50;;
21876;SDS011;11103;43.788;23.710;2023-03-21T07:22:18;39.20;;;23.93;;
21876;SDS011;11103;43.788;23.710;2023-03-21T07:24:43;35.80;;;24.87;;
21876;SDS011;11103;43.788;23.710;2023-03-21T07:27:12;38.20;;;24.10;;
21876;SDS011;11103;43.788;23.710;2023-03-21T07:29:38;41.83;;;23.97;;
21876;SDS011;11103;43.788;23.710;2023-03-21T07:32:03;41.57;;;26.57;;
21876;SDS011;11103;43.788;23.710;2023-03-21T07:34:29;41.43;;;24.73;;
21876;SDS011;11103;43.788;23.710;2023-03-21T07:36:57;43.17;;;24.67;;
21876;SDS011;11103;43.788;23.710;2023-03-21T07:39:22;39.70;;;24.90;;
21876;SDS011;11103;43.788;23.710;2023-03-21T07:41:48;50.63;;;26.73;;
21876;SDS011;11103;43.788;23.710;2023-03-21T07:44:13;34.67;;;24.80;;
21876;SDS011;11103;43.788;23.710;2023-03-21T07:46:39;81.37;;;26.67;;
21876;SDS011;11103;43.788;23.710;2023-03-21T07:49:05;43.67;;;25.00;;
21876;SDS011;11103;43.788;23.710;2023-03-21T07:51:30;34.73;;;23.90;;
21876;SDS011;11103;43.788;23.710;2023-03-21T07:53:56;35.07;;;24.03;;
21876;SDS011;11103;43.788;23.710;2023-03-21T07:56:21;48.93;;;26.10;;
21876;SDS011;11103;43.788;23.710;2023-03-21T07:58:46;40.30;;;26.53;;
21876;SDS011;11103;43.788;23.710;2023-03-21T08:01:12;36.20;;;25.00;;
21876;SDS011;11103;43.788;23.710;2023-03-21T08:03:37;39.73;;;26.03;;
21876;SDS011;11103;43.788;23.710;2023-03-21T08:06:03;43.60;;;27.63;;
21876;SDS011;11103;43.788;23.710;2023-03-21T08:08:29;37.90;;;24.87;;
21876;SDS011;11103;43.788;23.710;2023-03-21T08:10:55;39.83;;;24.63;;
21876;SDS011;11103;43.788;23.710;2023-03-21T08:13:20;44.40;;;26.03;;
21876;SDS011;11103;43.788;23.710;2023-03-21T08:15:46;38.47;;;24.60;;
21876;SDS011;11103;43.788;23.710;2023-03-21T08:18:12;33.83;;;24.00;;
21876;SDS011;11103;43.788;23.710;2023-03-21T08:20:37;41.50;;;25.83;;
21876;SDS011;11103;43.788;23.710;2023-03-21T08:23:03;49.40;;;32.50;;
21876;SDS011;11103;43.788;23.710;2023-03-21T08:25:28;49.20;;;34.80;;
21876;SDS011;11103;43.788;23.710;2023-03-21T08:27:54;40.53;;;24.40;;
21876;SDS011;11103;43.788;23.710;2023-03-21T08:30:22;47.43;;;32.53;;
21876;SDS011;11103;43.788;23.710;2023-03-21T08:32:50;37.67;;;25.77;;
21876;SDS011;11103;43.788;23.710;2023-03-21T08:35:19;50.27;;;29.30;;
21876;SDS011;11103;43.788;23.710;2023-03-21T08:37:45;46.20;;;30.07;;
21876;SDS011;11103;43.788;23.710;2023-03-21T08:40:15;38.83;;;26.53;;
21876;SDS011;11103;43.788;23.710;2023-03-21T08:42:42;45.47;;;27.43;;
21876;SDS011;11103;43.788;23.710;2023-03-21T08:45:08;35.87;;;25.67;;
21876;SDS011;11103;43.788;23.710;2023-03-21T08:47:35;38.63;;;26.33;;
21876;SDS011;11103;43.788;23.710;2023-03-21T08:50:01;45.13;;;31.00;;
21876;SDS011;11103;43.788;23.710;2023-03-21T08:52:27;37.33;;;25.03;;
21876;SDS011;11103;43.788;23.710;2023-03-21T08:54:53;34.87;;;24.60;;
21876;SDS011;11103;43.788;23.710;2023-03-21T08:57:19;37.63;;;24.80;;
21876;SDS011;11103;43.788;23.710;2023-03-21T08:59:44;38.10;;;28.73;;
21876;SDS011;11103;43.788;23.710;2023-03-21T09:02:13;43.67;;;26.63;;
21876;SDS011;11103;43.788;23.710;2023-03-21T09:04:40;36.17;;;24.00;;
21876;SDS011;11103;43.788;23.710;2023-03-21T09:07:07;36.30;;;23.77;;
21876;SDS011;11103;43.788;23.710;2023-03-21T09:09:34;37.73;;;23.87;;
21876;SDS011;11103;43.788;23.710;2023-03-21T09:12:00;32.03;;;22.33;;
21876;SDS011;11103;43.788;23.710;2023-03-21T09:14:25;37.47;;;23.37;;
21876;SDS011;11103;43.788;23.710;2023-03-21T09:16:51;32.93;;;22.57;;
21876;SDS011;11103;43.788;23.710;2023-03-21T09:19:16;32.47;;;23.07;;
21876;SDS011;11103;43.788;23.710;2023-03-21T09:21:42;31.40;;;22.80;;
21876;SDS011;11103;43.788;23.710;2023-03-21T09:24:08;33.80;;;21.60;;
21876;SDS011;11103;43.788;23.710;2023-03-21T09:26:36;28.83;;;21.33;;
21876;SDS011;11103;43.788;23.710;2023-03-21T09:29:02;32.67;;;22.27;;
21876;SDS011;11103;43.788;23.710;2023-03-21T09:31:29;30.37;;;21.47;;
21876;SDS011;11103;43.788;23.710;2023-03-21T09:33:55;32.50;;;21.87;;
21876;SDS011;11103;43.788;23.710;2023-03-21T09:36:22;37.83;;;21.87;;
21876;SDS011;11103;43.788;23.710;2023-03-21T09:38:49;32.40;;;21.27;;
21876;SDS011;11103;43.788;23.710;2023-03-21T09:41:26;32.93;;;21.77;;
21876;SDS011;11103;43.788;23.710;2023-03-21T09:47:19;33.53;;;23.47;;
21876;SDS011;11103;43.788;23.710;2023-03-21T09:55:25;40.20;;;27.50;;
21876;SDS011;11103;43.788;23.710;2023-03-21T10:00:50;38.70;;;27.70;;
21876;SDS011;11103;43.788;23.710;2023-03-21T10:03:24;40.53;;;28.40;;
21876;SDS011;11103;43.788;23.710;2023-03-21T10:05:54;45.23;;;28.67;;
21876;SDS011;11103;43.788;23.710;2023-03-21T10:08:40;46.30;;;29.13;;
21876;SDS011;11103;43.788;23.710;2023-03-21T10:11:27;48.17;;;31.67;;
21876;SDS011;11103;43.788;23.710;2023-03-21T10:14:17;47.83;;;31.57;;
21876;SDS011;11103;43.788;23.710;2023-03-21T10:16:54;42.83;;;29.63;;
21876;SDS011;11103;43.788;23.710;2023-03-21T10:19:23;41.40;;;29.27;;
21876;SDS011;11103;43.788;23.710;2023-03-21T10:21:49;45.87;;;30.67;;
21876;SDS011;11103;43.788;23.710;2023-03-21T10:24:17;45.63;;;29.60;;
21876;SDS011;11103;43.788;23.710;2023-03-21T10:26:46;44.17;;;28.93;;
21876;SDS011;11103;43.788;23.710;2023-03-21T10:29:14;41.63;;;29.83;;
21876;SDS011;11103;43.788;23.710;2023-03-21T10:31:41;42.00;;;29.27;;
21876;SDS011;11103;43.788;23.710;2023-03-21T10:34:14;43.93;;;30.70;;
21876;SDS011;11103;43.788;23.710;2023-03-21T10:36:42;48.53;;;30.23;;
21876;SDS011;11103;43.788;23.710;2023-03-21T10:39:15;45.07;;;28.73;;
21876;SDS011;11103;43.788;23.710;2023-03-21T10:41:51;50.53;;;28.80;;
21876;SDS011;11103;43.788;23.710;2023-03-21T10:44:17;38.37;;;28.20;;
21876;SDS011;11103;43.788;23.710;2023-03-21T10:46:53;41.13;;;28.30;;
21876;SDS011;11103;43.788;23.710;2023-03-21T10:49:21;44.57;;;27.37;;
21876;SDS011;11103;43.788;23.710;2023-03-21T10:51:51;41.63;;;27.70;;
21876;SDS011;11103;43.788;23.710;2023-03-21T10:54:20;40.77;;;26.53;;
21876;SDS011;11103;43.788;23.710;2023-03-21T10:56:52;38.57;;;25.53;;
21876;SDS011;11103;43.788;23.710;2023-03-21T10:59:25;39.63;;;28.07;;
21876;SDS011;11103;43.788;23.710;2023-03-21T11:01:58;41.37;;;26.93;;
21876;SDS011;11103;43.788;23.710;2023-03-21T11:04:25;39.77;;;27.97;;
21876;SDS011;11103;43.788;23.710;2023-03-21T11:06:54;39.70;;;26.50;;
21876;SDS011;11103;43.788;23.710;2023-03-21T11:09:23;35.83;;;25.73;;
21876;SDS011;11103;43.788;23.710;2023-03-21T11:11:53;37.03;;;26.23;;
21876;SDS011;11103;43.788;23.710;2023-03-21T11:17:06;37.10;;;25.73;;
21876;SDS011;11103;43.788;23.710;2023-03-21T11:22:29;39.90;;;26.90;;
21876;SDS011;11103;43.788;23.710;2023-03-21T11:25:01;39.50;;;26.33;;
21876;SDS011;11103;43.788;23.710;2023-03-21T11:27:30;37.33;;;26.27;;
21876;SDS011;11103;43.788;23.710;2023-03-21T11:29:56;38.87;;;26.90;;
21876;SDS011;11103;43.788;23.710;2023-03-21T11:32:35;44.90;;;26.77;;
21876;SDS011;11103;43.788;23.710;2023-03-21T11:35:18;54.60;;;27.93;;
21876;SDS011;11103;43.788;23.710;2023-03-21T11:37:48;42.43;;;27.63;;
21876;SDS011;11103;43.788;23.710;2023-03-21T11:42:47;38.40;;;26.37;;
21876;SDS011;11103;43.788;23.710;2023-03-21T11:47:44;36.83;;;25.57;;
21876;SDS011;11103;43.788;23.710;2023-03-21T11:52:42;33.00;;;23.67;;
21876;SDS011;11103;43.788;23.710;2023-03-21T12:03:07;32.50;;;22.87;;
21876;SDS011;11103;43.788;23.710;2023-03-21T12:05:53;27.43;;;20.77;;
21876;SDS011;11103;43.788;23.710;2023-03-21T12:19:45;36.57;;;22.37;;
21876;SDS011;11103;43.788;23.710;2023-03-21T12:25:18;27.13;;;21.23;;
21876;SDS011;11103;43.788;23.710;2023-03-21T12:42:04;32.17;;;21.00;;
21876;SDS011;11103;43.788;23.710;2023-03-21T12:44:34;27.67;;;20.87;;
21876;SDS011;11103;43.788;23.710;2023-03-21T12:49:50;30.67;;;20.37;;
21876;SDS011;11103;43.788;23.710;2023-03-21T12:52:26;30.30;;;19.67;;
21876;SDS011;11103;43.788;23.710;2023-03-21T12:55:16;31.83;;;20.93;;
21876;SDS011;11103;43.788;23.710;2023-03-21T12:57:55;28.63;;;19.43;;
21876;SDS011;11103;43.788;23.710;2023-03-21T13:00:43;30.47;;;20.80;;
21876;SDS011;11103;43.788;23.710;2023-03-21T13:03:17;31.93;;;20.87;;
21876;SDS011;11103;43.788;23.710;2023-03-21T13:05:47;37.07;;;21.13;;
21876;SDS011;11103;43.788;23.710;2023-03-21T13:10:58;28.00;;;20.50;;
21876;SDS011;11103;43.788;23.710;2023-03-21T13:13:29;27.63;;;20.37;;
21876;SDS011;11103;43.788;23.710;2023-03-21T13:21:20;30.70;;;19.30;;
21876;SDS011;11103;43.788;23.710;2023-03-21T13:29:28;31.43;;;21.20;;
21876;SDS011;11103;43.788;23.710;2023-03-21T13:32:07;29.40;;;20.70;;
21876;SDS011;11103;43.788;23.710;2023-03-21T13:34:40;27.60;;;20.33;;
21876;SDS011;11103;43.788;23.710;2023-03-21T13:37:05;28.23;;;19.80;;
21876;SDS011;11103;43.788;23.710;2023-03-21T13:39:41;30.27;;;20.43;;
21876;SDS011;11103;43.788;23.710;2023-03-21T13:42:10;35.07;;;21.17;;
21876;SDS011;11103;43.788;23.710;2023-03-21T13:44:48;29.23;;;20.33;;
21876;SDS011;11103;43.788;23.710;2023-03-21T13:47:39;30.03;;;20.23;;
21876;SDS011;11103;43.788;23.710;2023-03-21T13:52:41;29.67;;;19.77;;
21876;SDS011;11103;43.788;23.710;2023-03-21T13:55:22;31.60;;;19.40;;
21876;SDS011;11103;43.788;23.710;2023-03-21T13:57:52;30.33;;;21.00;;
21876;SDS011;11103;43.788;23.710;2023-03-21T14:00:28;28.37;;;20.00;;
21876;SDS011;11103;43.788;23.710;2023-03-21T14:05:24;26.67;;;18.80;;
21876;SDS011;11103;43.788;23.710;2023-03-21T14:08:00;24.10;;;19.17;;
21876;SDS011;11103;43.788;23.710;2023-03-21T14:10:32;32.77;;;19.73;;
21876;SDS011;11103;43.788;23.710;2023-03-21T14:12:58;25.33;;;19.37;;
21876;SDS011;11103;43.788;23.710;2023-03-21T14:15:28;36.17;;;19.90;;
21876;SDS011;11103;43.788;23.710;2023-03-21T14:18:00;29.80;;;20.00;;
21876;SDS011;11103;43.788;23.710;2023-03-21T14:20:32;28.10;;;19.80;;
21876;SDS011;11103;43.788;23.710;2023-03-21T14:23:02;27.10;;;19.20;;
21876;SDS011;11103;43.788;23.710;2023-03-21T14:25:32;28.60;;;19.80;;
21876;SDS011;11103;43.788;23.710;2023-03-21T14:28:00;29.10;;;20.00;;
21876;SDS011;11103;43.788;23.710;2023-03-21T14:30:31;27.47;;;20.67;;
21876;SDS011;11103;43.788;23.710;2023-03-21T14:32:59;33.77;;;21.23;;
21876;SDS011;11103;43.788;23.710;2023-03-21T14:35:31;30.53;;;21.37;;
21876;SDS011;11103;43.788;23.710;2023-03-21T14:38:04;30.17;;;20.67;;
21876;SDS011;11103;43.788;23.710;2023-03-21T14:40:34;32.53;;;22.37;;
21876;SDS011;11103;43.788;23.710;2023-03-21T14:43:03;28.83;;;21.17;;
21876;SDS011;11103;43.788;23.710;2023-03-21T14:45:30;32.60;;;21.83;;
21876;SDS011;11103;43.788;23.710;2023-03-21T14:48:20;133.20;;;25.83;;
21876;SDS011;11103;43.788;23.710;2023-03-21T14:50:52;41.50;;;22.20;;
21876;SDS011;11103;43.788;23.710;2023-03-21T14:56:05;34.97;;;22.13;;
21876;SDS011;11103;43.788;23.710;2023-03-21T14:58:33;31.10;;;22.57;;
21876;SDS011;11103;43.788;23.710;2023-03-21T15:01:03;30.47;;;20.40;;
21876;SDS011;11103;43.788;23.710;2023-03-21T15:03:32;29.93;;;20.80;;
21876;SDS011;11103;43.788;23.710;2023-03-21T15:05:58;35.80;;;21.90;;
21876;SDS011;11103;43.788;23.710;2023-03-21T15:08:26;28.73;;;21.23;;
21876;SDS011;11103;43.788;23.710;2023-03-21T15:11:04;33.07;;;21.33;;
21876;SDS011;11103;43.788;23.710;2023-03-21T15:15:57;28.10;;;20.40;;
21876;SDS011;11103;43.788;23.710;2023-03-21T15:18:36;32.03;;;21.47;;
21876;SDS011;11103;43.788;23.710;2023-03-21T15:21:04;34.40;;;21.77;;
21876;SDS011;11103;43.788;23.710;2023-03-21T15:23:35;33.50;;;22.30;;
21876;SDS011;11103;43.788;23.710;2023-03-21T15:26:05;46.53;;;23.60;;
21876;SDS011;11103;43.788;23.710;2023-03-21T15:28:32;32.03;;;21.03;;
21876;SDS011;11103;43.788;23.710;2023-03-21T15:30:59;34.77;;;21.97;;
21876;SDS011;11103;43.788;23.710;2023-03-21T15:33:25;44.23;;;22.43;;
21876;SDS011;11103;43.788;23.710;2023-03-21T15:35:55;36.70;;;21.00;;
21876;SDS011;11103;43.788;23.710;2023-03-21T15:38:43;29.90;;;20.50;;
21876;SDS011;11103;43.788;23.710;2023-03-21T15:41:23;36.97;;;21.53;;
21876;SDS011;11103;43.788;23.710;2023-03-21T15:46:42;36.00;;;20.93;;
21876;SDS011;11103;43.788;23.710;2023-03-21T15:51:40;34.60;;;22.60;;
21876;SDS011;11103;43.788;23.710;2023-03-21T15:54:14;41.07;;;25.70;;
21876;SDS011;11103;43.788;23.710;2023-03-21T15:56:46;36.23;;;22.57;;
21876;SDS011;11103;43.788;23.710;2023-03-21T15:59:15;39.20;;;23.80;;
21876;SDS011;11103;43.788;23.710;2023-03-21T16:01:45;52.37;;;25.90;;
21876;SDS011;11103;43.788;23.710;2023-03-21T16:04:12;47.93;;;29.27;;
21876;SDS011;11103;43.788;23.710;2023-03-21T16:06:41;76.73;;;43.10;;
21876;SDS011;11103;43.788;23.710;2023-03-21T16:09:17;50.20;;;30.27;;
21876;SDS011;11103;43.788;23.710;2023-03-21T16:14:12;51.83;;;29.60;;
21876;SDS011;11103;43.788;23.710;2023-03-21T16:16:38;63.33;;;34.67;;
21876;SDS011;11103;43.788;23.710;2023-03-21T16:19:04;62.90;;;34.50;;
21876;SDS011;11103;43.788;23.710;2023-03-21T16:21:31;60.93;;;34.90;;
21876;SDS011;11103;43.788;23.710;2023-03-21T16:23:58;64.73;;;38.33;;
21876;SDS011;11103;43.788;23.710;2023-03-21T16:26:25;66.10;;;38.60;;
21876;SDS011;11103;43.788;23.710;2023-03-21T16:28:53;94.43;;;36.10;;
21876;SDS011;11103;43.788;23.710;2023-03-21T16:31:20;79.10;;;34.60;;
21876;SDS011;11103;43.788;23.710;2023-03-21T16:33:47;88.27;;;35.07;;
21876;SDS011;11103;43.788;23.710;2023-03-21T16:36:21;79.63;;;39.30;;
21876;SDS011;11103;43.788;23.710;2023-03-21T16:38:48;80.67;;;37.33;;